sensor_id;sensor_type;location;lat;lon;timestamp;pressure;altitude;pressure_sealevel;temperature;humidity
79415;BME280;68864;44.972;19.612;2023-04-10T00:00:32;101249.56;;;9.45;63.21
79415;BME280;68864;44.972;19.612;2023-04-10T00:02:59;101259.00;;;9.53;63.61
79415;BME280;68864;44.972;19.612;2023-04-10T00:05:27;101249.03;;;9.52;63.96
79415;BME280;68864;44.972;19.612;2023-04-10T00:07:53;101206.03;;;9.29;63.11
79415;BME280;68864;44.972;19.612;2023-04-10T00:10:21;101215.91;;;9.38;63.79
79415;BME280;68864;44.972;19.612;2023-04-10T00:12:50;101242.91;;;9.58;63.92
79415;BME280;68864;44.972;19.612;2023-04-10T00:15:18;101245.91;;;9.53;63.78
79415;BME280;68864;44.972;19.612;2023-04-10T00:17:45;101246.41;;;9.55;63.43
79415;BME280;68864;44.972;19.612;2023-04-10T00:20:11;101235.72;;;9.57;62.81
79415;BME280;68864;44.972;19.612;2023-04-10T00:22:38;101229.09;;;9.50;63.37
79415;BME280;68864;44.972;19.612;2023-04-10T00:25:06;101216.34;;;9.49;63.08
79415;BME280;68864;44.972;19.612;2023-04-10T00:27:34;101229.75;;;9.47;63.39
79415;BME280;68864;44.972;19.612;2023-04-10T00:30:01;101215.72;;;9.43;63.23
79415;BME280;68864;44.972;19.612;2023-04-10T00:32:28;101220.81;;;9.41;63.33
79415;BME280;68864;44.972;19.612;2023-04-10T00:34:54;101222.28;;;9.39;63.16
79415;BME280;68864;44.972;19.612;2023-04-10T00:37:21;101215.47;;;9.36;63.11
79415;BME280;68864;44.972;19.612;2023-04-10T00:39:48;101189.88;;;9.22;63.13
79415;BME280;68864;44.972;19.612;2023-04-10T00:42:15;101216.59;;;9.35;62.65
79415;BME280;68864;44.972;19.612;2023-04-10T00:44:43;101206.47;;;9.31;63.26
79415;BME280;68864;44.972;19.612;2023-04-10T00:47:11;101212.59;;;9.24;63.47
79415;BME280;68864;44.972;19.612;2023-04-10T00:49:39;101205.75;;;9.22;64.03
79415;BME280;68864;44.972;19.612;2023-04-10T00:52:06;101208.38;;;9.18;64.00
79415;BME280;68864;44.972;19.612;2023-04-10T00:54:33;101174.22;;;8.97;63.75
79415;BME280;68864;44.972;19.612;2023-04-10T00:57:01;101212.53;;;9.12;64.14
79415;BME280;68864;44.972;19.612;2023-04-10T00:59:29;101205.81;;;9.13;63.90
79415;BME280;68864;44.972;19.612;2023-04-10T01:01:57;101154.81;;;8.88;63.48
79415;BME280;68864;44.972;19.612;2023-04-10T01:04:25;101206.56;;;9.22;64.13
79415;BME280;68864;44.972;19.612;2023-04-10T01:06:58;101210.63;;;9.25;63.96
79415;BME280;68864;44.972;19.612;2023-04-10T01:09:34;101203.56;;;9.27;63.56
79415;BME280;68864;44.972;19.612;2023-04-10T01:12:12;101198.94;;;9.31;63.66
79415;BME280;68864;44.972;19.612;2023-04-10T01:14:47;101194.34;;;9.35;63.89
79415;BME280;68864;44.972;19.612;2023-04-10T01:17:21;101198.41;;;9.38;62.78
79415;BME280;68864;44.972;19.612;2023-04-10T01:20:03;101199.69;;;9.40;63.33
79415;BME280;68864;44.972;19.612;2023-04-10T01:22:34;101198.06;;;9.39;63.38
79415;BME280;68864;44.972;19.612;2023-04-10T01:25:29;101195.84;;;9.33;63.34
79415;BME280;68864;44.972;19.612;2023-04-10T01:28:09;101198.41;;;9.38;63.31
79415;BME280;68864;44.972;19.612;2023-04-10T01:30:41;101185.03;;;9.31;62.81
79415;BME280;68864;44.972;19.612;2023-04-10T01:33:12;101190.28;;;9.33;62.80
79415;BME280;68864;44.972;19.612;2023-04-10T01:35:42;101196.66;;;9.33;63.61
79415;BME280;68864;44.972;19.612;2023-04-10T01:38:11;101189.19;;;9.25;63.02
79415;BME280;68864;44.972;19.612;2023-04-10T01:40:40;101191.16;;;9.25;63.30
79415;BME280;68864;44.972;19.612;2023-04-10T01:43:13;101195.13;;;9.24;62.89
79415;BME280;68864;44.972;19.612;2023-04-10T01:45:44;101189.88;;;9.22;62.99
79415;BME280;68864;44.972;19.612;2023-04-10T01:48:11;101185.53;;;9.12;64.16
79415;BME280;68864;44.972;19.612;2023-04-10T01:50:40;101191.09;;;9.12;64.00
79415;BME280;68864;44.972;19.612;2023-04-10T01:53:08;101194.19;;;9.11;63.43
79415;BME280;68864;44.972;19.612;2023-04-10T01:55:36;101187.22;;;9.05;63.35
79415;BME280;68864;44.972;19.612;2023-04-10T01:58:03;101192.78;;;9.05;64.46
79415;BME280;68864;44.972;19.612;2023-04-10T02:00:36;101181.00;;;9.08;63.78
79415;BME280;68864;44.972;19.612;2023-04-10T02:03:04;101175.16;;;9.01;63.65
79415;BME280;68864;44.972;19.612;2023-04-10T02:05:38;101189.06;;;9.01;64.62
79415;BME280;68864;44.972;19.612;2023-04-10T02:08:11;101181.75;;;8.96;64.11
79415;BME280;68864;44.972;19.612;2023-04-10T02:10:44;101184.38;;;8.93;63.75
79415;BME280;68864;44.972;19.612;2023-04-10T02:13:20;101182.13;;;8.86;64.35
79415;BME280;68864;44.972;19.612;2023-04-10T02:15:49;101171.69;;;8.83;64.71
79415;BME280;68864;44.972;19.612;2023-04-10T02:18:19;101173.97;;;8.81;64.07
79415;BME280;68864;44.972;19.612;2023-04-10T02:20:47;101182.81;;;8.83;64.42
79415;BME280;68864;44.972;19.612;2023-04-10T02:23:15;101172.63;;;8.87;64.92
79415;BME280;68864;44.972;19.612;2023-04-10T02:25:41;101176.69;;;8.69;64.92
79415;BME280;68864;44.972;19.612;2023-04-10T02:28:08;101180.06;;;8.74;64.64
79415;BME280;68864;44.972;19.612;2023-04-10T02:30:35;101171.75;;;8.74;64.18
79415;BME280;68864;44.972;19.612;2023-04-10T02:33:03;101168.53;;;8.64;63.78
79415;BME280;68864;44.972;19.612;2023-04-10T02:35:32;101172.75;;;8.70;64.73
79415;BME280;68864;44.972;19.612;2023-04-10T02:37:58;101180.72;;;8.71;64.80
79415;BME280;68864;44.972;19.612;2023-04-10T02:40:25;101170.63;;;8.67;64.79
79415;BME280;68864;44.972;19.612;2023-04-10T02:42:52;101189.22;;;8.75;64.61
79415;BME280;68864;44.972;19.612;2023-04-10T02:45:19;101186.94;;;8.77;64.42
79415;BME280;68864;44.972;19.612;2023-04-10T02:47:45;101180.19;;;8.78;64.42
79415;BME280;68864;44.972;19.612;2023-04-10T02:50:12;101190.16;;;8.79;63.97
79415;BME280;68864;44.972;19.612;2023-04-10T02:52:40;101174.66;;;8.78;63.90
79415;BME280;68864;44.972;19.612;2023-04-10T02:55:07;101177.91;;;8.80;64.09
79415;BME280;68864;44.972;19.612;2023-04-10T02:57:34;101182.25;;;8.69;64.76
79415;BME280;68864;44.972;19.612;2023-04-10T03:00:01;101176.59;;;8.77;64.37
79415;BME280;68864;44.972;19.612;2023-04-10T03:02:28;101180.19;;;8.78;64.04
79415;BME280;68864;44.972;19.612;2023-04-10T03:04:56;101169.91;;;8.78;64.28
79415;BME280;68864;44.972;19.612;2023-04-10T03:07:22;101171.69;;;8.83;63.65
79415;BME280;68864;44.972;19.612;2023-04-10T03:09:50;101175.28;;;8.84;64.19
79415;BME280;68864;44.972;19.612;2023-04-10T03:12:17;101171.00;;;8.86;63.93
79415;BME280;68864;44.972;19.612;2023-04-10T03:14:44;101168.91;;;8.83;63.76
79415;BME280;68864;44.972;19.612;2023-04-10T03:17:11;101175.41;;;8.87;63.84
79415;BME280;68864;44.972;19.612;2023-04-10T03:19:38;101171.31;;;8.85;64.67
79415;BME280;68864;44.972;19.612;2023-04-10T03:22:05;101165.31;;;8.83;63.60
79415;BME280;68864;44.972;19.612;2023-04-10T03:24:31;101172.97;;;8.86;64.13
79415;BME280;68864;44.972;19.612;2023-04-10T03:26:59;101173.13;;;8.89;64.36
79415;BME280;68864;44.972;19.612;2023-04-10T03:29:26;101166.19;;;8.95;63.55
79415;BME280;68864;44.972;19.612;2023-04-10T03:31:53;101170.41;;;9.01;64.28
79415;BME280;68864;44.972;19.612;2023-04-10T03:34:20;101166.00;;;9.00;64.07
79415;BME280;68864;44.972;19.612;2023-04-10T03:36:47;101175.44;;;9.08;64.24
79415;BME280;68864;44.972;19.612;2023-04-10T03:39:13;101177.13;;;9.00;64.66
79415;BME280;68864;44.972;19.612;2023-04-10T03:41:40;101176.78;;;9.02;64.72
79415;BME280;68864;44.972;19.612;2023-04-10T03:44:08;101175.19;;;8.92;65.39
79415;BME280;68864;44.972;19.612;2023-04-10T03:46:35;101188.16;;;8.88;65.49
79415;BME280;68864;44.972;19.612;2023-04-10T03:49:01;101176.88;;;8.85;64.58
79415;BME280;68864;44.972;19.612;2023-04-10T03:51:28;101179.53;;;8.81;64.95
79415;BME280;68864;44.972;19.612;2023-04-10T03:53:55;101175.47;;;8.78;64.80
79415;BME280;68864;44.972;19.612;2023-04-10T03:56:22;101181.50;;;8.81;65.04
79415;BME280;68864;44.972;19.612;2023-04-10T03:58:49;101175.63;;;8.82;65.22
79415;BME280;68864;44.972;19.612;2023-04-10T04:01:17;101185.09;;;8.81;64.76
79415;BME280;68864;44.972;19.612;2023-04-10T04:03:44;101182.94;;;8.87;64.44
79415;BME280;68864;44.972;19.612;2023-04-10T04:06:11;101186.19;;;8.89;65.59
79415;BME280;68864;44.972;19.612;2023-04-10T04:08:38;101187.34;;;8.88;64.27
79415;BME280;68864;44.972;19.612;2023-04-10T04:11:05;101177.38;;;8.87;64.14
79415;BME280;68864;44.972;19.612;2023-04-10T04:13:32;101187.13;;;8.93;64.28
79415;BME280;68864;44.972;19.612;2023-04-10T04:15:59;101189.91;;;8.93;65.15
79415;BME280;68864;44.972;19.612;2023-04-10T04:18:27;101185.19;;;8.93;64.74
79415;BME280;68864;44.972;19.612;2023-04-10T04:20:53;101191.44;;;8.90;65.30
79415;BME280;68864;44.972;19.612;2023-04-10T04:23:20;101188.97;;;8.89;64.64
79415;BME280;68864;44.972;19.612;2023-04-10T04:25:47;101199.78;;;8.90;64.65
79415;BME280;68864;44.972;19.612;2023-04-10T04:28:17;101188.97;;;8.89;65.34
79415;BME280;68864;44.972;19.612;2023-04-10T04:30:43;101181.47;;;8.89;64.69
79415;BME280;68864;44.972;19.612;2023-04-10T04:33:10;101194.50;;;8.97;65.49
79415;BME280;68864;44.972;19.612;2023-04-10T04:35:38;101193.59;;;9.05;64.48
79415;BME280;68864;44.972;19.612;2023-04-10T04:38:05;101193.25;;;9.07;64.72
79415;BME280;68864;44.972;19.612;2023-04-10T04:40:32;101201.13;;;9.05;65.04
79415;BME280;68864;44.972;19.612;2023-04-10T04:42:58;101200.78;;;9.06;64.18
79415;BME280;68864;44.972;19.612;2023-04-10T04:45:25;101198.63;;;9.12;63.78
79415;BME280;68864;44.972;19.612;2023-04-10T04:47:53;101199.44;;;9.12;64.42
79415;BME280;68864;44.972;19.612;2023-04-10T04:50:20;101184.59;;;9.08;64.43
79415;BME280;68864;44.972;19.612;2023-04-10T04:52:48;101201.00;;;9.22;63.72
79415;BME280;68864;44.972;19.612;2023-04-10T04:55:15;101204.88;;;9.30;63.66
79415;BME280;68864;44.972;19.612;2023-04-10T04:57:42;101194.91;;;9.29;63.52
79415;BME280;68864;44.972;19.612;2023-04-10T05:00:09;101200.53;;;9.41;64.00
79415;BME280;68864;44.972;19.612;2023-04-10T05:02:36;101208.66;;;9.46;63.37
79415;BME280;68864;44.972;19.612;2023-04-10T05:05:03;101215.09;;;9.58;62.68
79415;BME280;68864;44.972;19.612;2023-04-10T05:07:30;101213.00;;;9.55;62.42
79415;BME280;68864;44.972;19.612;2023-04-10T05:09:58;101213.88;;;9.68;61.93
79415;BME280;68864;44.972;19.612;2023-04-10T05:12:25;101222.50;;;9.87;61.76
79415;BME280;68864;44.972;19.612;2023-04-10T05:14:52;101214.91;;;9.96;61.59
79415;BME280;68864;44.972;19.612;2023-04-10T05:17:18;101233.84;;;10.15;60.37
79415;BME280;68864;44.972;19.612;2023-04-10T05:19:45;101220.94;;;10.11;60.27
79415;BME280;68864;44.972;19.612;2023-04-10T05:22:12;101240.53;;;10.23;59.95
79415;BME280;68864;44.972;19.612;2023-04-10T05:24:39;101237.16;;;10.29;60.44
79415;BME280;68864;44.972;19.612;2023-04-10T05:27:07;101239.06;;;10.50;60.00
79415;BME280;68864;44.972;19.612;2023-04-10T05:29:33;101215.47;;;10.47;59.28
79415;BME280;68864;44.972;19.612;2023-04-10T05:32:00;101241.63;;;10.67;58.97
79415;BME280;68864;44.972;19.612;2023-04-10T05:34:27;101239.31;;;10.81;59.01
79415;BME280;68864;44.972;19.612;2023-04-10T05:36:54;101245.00;;;10.97;58.20
79415;BME280;68864;44.972;19.612;2023-04-10T05:39:21;101241.22;;;11.17;57.59
79415;BME280;68864;44.972;19.612;2023-04-10T05:41:47;101242.94;;;11.34;57.22
79415;BME280;68864;44.972;19.612;2023-04-10T05:44:15;101242.00;;;11.42;57.20
79415;BME280;68864;44.972;19.612;2023-04-10T05:46:42;101247.09;;;11.52;56.85
79415;BME280;68864;44.972;19.612;2023-04-10T05:49:09;101240.06;;;11.58;56.90
79415;BME280;68864;44.972;19.612;2023-04-10T05:51:35;101234.75;;;11.53;56.97
79415;BME280;68864;44.972;19.612;2023-04-10T05:54:02;101241.91;;;11.66;56.46
79415;BME280;68864;44.972;19.612;2023-04-10T05:56:29;101244.03;;;11.69;56.60
79415;BME280;68864;44.972;19.612;2023-04-10T05:58:56;101246.91;;;11.73;56.70
79415;BME280;68864;44.972;19.612;2023-04-10T06:01:24;101233.06;;;11.64;56.46
79415;BME280;68864;44.972;19.612;2023-04-10T06:03:51;101244.25;;;11.76;56.39
79415;BME280;68864;44.972;19.612;2023-04-10T06:06:19;101236.31;;;11.78;55.88
79415;BME280;68864;44.972;19.612;2023-04-10T06:08:46;101245.63;;;11.82;57.25
79415;BME280;68864;44.972;19.612;2023-04-10T06:11:12;101243.28;;;11.72;56.98
79415;BME280;68864;44.972;19.612;2023-04-10T06:13:39;101246.22;;;11.64;57.58
79415;BME280;68864;44.972;19.612;2023-04-10T06:16:07;101249.28;;;11.59;57.83
79415;BME280;68864;44.972;19.612;2023-04-10T06:18:36;101248.38;;;11.54;57.88
79415;BME280;68864;44.972;19.612;2023-04-10T06:21:03;101252.66;;;11.52;57.85
79415;BME280;68864;44.972;19.612;2023-04-10T06:23:30;101252.09;;;11.46;58.45
79415;BME280;68864;44.972;19.612;2023-04-10T06:25:57;101241.66;;;11.43;58.00
79415;BME280;68864;44.972;19.612;2023-04-10T06:28:24;101252.00;;;11.43;58.07
79415;BME280;68864;44.972;19.612;2023-04-10T06:30:51;101241.78;;;11.35;58.13
79415;BME280;68864;44.972;19.612;2023-04-10T06:33:18;101259.19;;;11.44;57.88
79415;BME280;68864;44.972;19.612;2023-04-10T06:35:46;101249.22;;;11.43;58.42
79415;BME280;68864;44.972;19.612;2023-04-10T06:38:13;101265.25;;;11.46;57.92
79415;BME280;68864;44.972;19.612;2023-04-10T06:40:40;101255.63;;;11.43;57.61
79415;BME280;68864;44.972;19.612;2023-04-10T06:43:07;101259.31;;;11.47;57.38
79415;BME280;68864;44.972;19.612;2023-04-10T06:45:33;101267.19;;;11.57;57.29
79415;BME280;68864;44.972;19.612;2023-04-10T06:48:00;101265.38;;;11.89;56.62
79415;BME280;68864;44.972;19.612;2023-04-10T06:50:27;101261.72;;;12.17;55.86
79415;BME280;68864;44.972;19.612;2023-04-10T06:52:55;101268.66;;;12.66;54.41
79415;BME280;68864;44.972;19.612;2023-04-10T06:55:24;101261.59;;;12.72;54.35
79415;BME280;68864;44.972;19.612;2023-04-10T06:57:51;101265.50;;;12.68;54.60
79415;BME280;68864;44.972;19.612;2023-04-10T07:00:18;101264.13;;;12.46;55.05
79415;BME280;68864;44.972;19.612;2023-04-10T07:02:45;101278.81;;;12.43;55.50
79415;BME280;68864;44.972;19.612;2023-04-10T07:05:12;101272.50;;;12.30;55.57
79415;BME280;68864;44.972;19.612;2023-04-10T07:07:40;101268.44;;;12.28;55.60
79415;BME280;68864;44.972;19.612;2023-04-10T07:10:09;101265.66;;;12.28;55.46
79415;BME280;68864;44.972;19.612;2023-04-10T07:12:37;101259.41;;;12.19;55.33
79415;BME280;68864;44.972;19.612;2023-04-10T07:15:05;101253.47;;;12.20;55.45
79415;BME280;68864;44.972;19.612;2023-04-10T07:17:32;101270.16;;;12.32;55.28
79415;BME280;68864;44.972;19.612;2023-04-10T07:19:59;101267.00;;;12.34;55.72
79415;BME280;68864;44.972;19.612;2023-04-10T07:22:26;101250.44;;;12.41;55.55
79415;BME280;68864;44.972;19.612;2023-04-10T07:24:52;101261.44;;;12.65;54.65
79415;BME280;68864;44.972;19.612;2023-04-10T07:27:20;101268.19;;;12.96;54.29
79415;BME280;68864;44.972;19.612;2023-04-10T07:29:49;101267.41;;;13.30;53.42
79415;BME280;68864;44.972;19.612;2023-04-10T07:32:16;101262.03;;;13.76;52.94
79415;BME280;68864;44.972;19.612;2023-04-10T07:34:42;101258.31;;;14.10;51.30
79415;BME280;68864;44.972;19.612;2023-04-10T07:37:09;101239.25;;;14.39;50.06
79415;BME280;68864;44.972;19.612;2023-04-10T07:39:36;101240.94;;;14.89;48.62
79415;BME280;68864;44.972;19.612;2023-04-10T07:42:03;101251.25;;;15.94;45.82
79415;BME280;68864;44.972;19.612;2023-04-10T07:44:31;101248.69;;;16.15;44.76
79415;BME280;68864;44.972;19.612;2023-04-10T07:46:57;101249.84;;;16.51;44.25
79415;BME280;68864;44.972;19.612;2023-04-10T07:49:24;101256.59;;;17.34;42.28
79415;BME280;68864;44.972;19.612;2023-04-10T07:51:51;101236.94;;;17.52;42.08
79415;BME280;68864;44.972;19.612;2023-04-10T07:54:18;101251.38;;;18.34;39.58
79415;BME280;68864;44.972;19.612;2023-04-10T07:56:45;101242.59;;;18.92;38.52
79415;BME280;68864;44.972;19.612;2023-04-10T07:59:11;101243.53;;;21.15;34.02
79415;BME280;68864;44.972;19.612;2023-04-10T08:01:40;101239.09;;;20.66;33.65
79415;BME280;68864;44.972;19.612;2023-04-10T08:04:06;101235.53;;;20.54;34.71
79415;BME280;68864;44.972;19.612;2023-04-10T08:06:33;101245.00;;;20.85;33.87
79415;BME280;68864;44.972;19.612;2023-04-10T08:09:00;101245.38;;;23.11;30.08
79415;BME280;68864;44.972;19.612;2023-04-10T08:11:28;101250.41;;;22.49;31.62
79415;BME280;68864;44.972;19.612;2023-04-10T08:13:56;101246.69;;;23.06;30.30
79415;BME280;68864;44.972;19.612;2023-04-10T08:16:27;101246.84;;;22.45;30.67
79415;BME280;68864;44.972;19.612;2023-04-10T08:18:56;101246.00;;;24.24;28.17
79415;BME280;68864;44.972;19.612;2023-04-10T08:21:24;101246.56;;;24.68;27.48
79415;BME280;68864;44.972;19.612;2023-04-10T08:23:52;101252.88;;;22.74;31.28
79415;BME280;68864;44.972;19.612;2023-04-10T08:26:19;101253.78;;;21.80;32.29
79415;BME280;68864;44.972;19.612;2023-04-10T08:28:47;101252.53;;;20.54;33.98
79415;BME280;68864;44.972;19.612;2023-04-10T08:31:15;101246.91;;;19.64;35.28
79415;BME280;68864;44.972;19.612;2023-04-10T08:33:42;101234.91;;;18.71;37.02
79415;BME280;68864;44.972;19.612;2023-04-10T08:36:10;101247.00;;;18.54;37.64
79415;BME280;68864;44.972;19.612;2023-04-10T08:38:40;101256.66;;;18.46;38.72
79415;BME280;68864;44.972;19.612;2023-04-10T08:41:09;101250.19;;;18.38;38.35
79415;BME280;68864;44.972;19.612;2023-04-10T08:43:36;101250.97;;;18.32;38.55
79415;BME280;68864;44.972;19.612;2023-04-10T08:46:03;101236.84;;;18.21;38.84
79415;BME280;68864;44.972;19.612;2023-04-10T08:48:33;101248.94;;;18.14;39.11
79415;BME280;68864;44.972;19.612;2023-04-10T08:51:03;101244.44;;;18.03;39.09
79415;BME280;68864;44.972;19.612;2023-04-10T08:53:36;101248.34;;;17.66;39.20
79415;BME280;68864;44.972;19.612;2023-04-10T08:56:06;101248.94;;;17.35;40.17
79415;BME280;68864;44.972;19.612;2023-04-10T08:58:34;101239.16;;;17.15;40.26
79415;BME280;68864;44.972;19.612;2023-04-10T09:01:01;101238.19;;;16.93;41.36
79415;BME280;68864;44.972;19.612;2023-04-10T09:03:30;101246.00;;;17.17;41.04
79415;BME280;68864;44.972;19.612;2023-04-10T09:06:01;101244.41;;;17.20;41.56
79415;BME280;68864;44.972;19.612;2023-04-10T09:08:28;101253.00;;;17.41;41.00
79415;BME280;68864;44.972;19.612;2023-04-10T09:10:56;101249.13;;;17.63;39.63
79415;BME280;68864;44.972;19.612;2023-04-10T09:13:37;101237.47;;;17.72;39.13
79415;BME280;68864;44.972;19.612;2023-04-10T09:16:05;101223.41;;;17.82;39.35
79415;BME280;68864;44.972;19.612;2023-04-10T09:18:47;101240.00;;;17.98;39.16
79415;BME280;68864;44.972;19.612;2023-04-10T09:21:16;101234.78;;;18.11;39.99
79415;BME280;68864;44.972;19.612;2023-04-10T09:23:44;101221.94;;;18.27;39.97
79415;BME280;68864;44.972;19.612;2023-04-10T09:26:23;101228.41;;;18.28;39.32
79415;BME280;68864;44.972;19.612;2023-04-10T09:28:55;101230.84;;;18.47;39.21
79415;BME280;68864;44.972;19.612;2023-04-10T09:31:27;101217.56;;;18.62;38.25
79415;BME280;68864;44.972;19.612;2023-04-10T09:34:06;101217.97;;;18.92;38.58
79415;BME280;68864;44.972;19.612;2023-04-10T09:36:33;101212.69;;;19.19;37.91
79415;BME280;68864;44.972;19.612;2023-04-10T09:38:59;101218.66;;;19.42;38.19
79415;BME280;68864;44.972;19.612;2023-04-10T09:41:28;101221.44;;;19.71;37.22
79415;BME280;68864;44.972;19.612;2023-04-10T09:44:05;101222.66;;;19.73;37.31
79415;BME280;68864;44.972;19.612;2023-04-10T09:46:32;101213.50;;;20.17;36.34
79415;BME280;68864;44.972;19.612;2023-04-10T09:48:59;101214.22;;;20.36;36.27
79415;BME280;68864;44.972;19.612;2023-04-10T09:51:30;101206.03;;;20.48;35.18
79415;BME280;68864;44.972;19.612;2023-04-10T09:53:58;101217.31;;;20.55;34.89
79415;BME280;68864;44.972;19.612;2023-04-10T09:56:27;101201.47;;;20.61;34.26
79415;BME280;68864;44.972;19.612;2023-04-10T09:58:56;101215.25;;;20.63;34.07
79415;BME280;68864;44.972;19.612;2023-04-10T10:01:25;101212.34;;;20.74;34.22
79415;BME280;68864;44.972;19.612;2023-04-10T10:03:53;101197.38;;;20.73;34.48
79415;BME280;68864;44.972;19.612;2023-04-10T10:06:21;101207.38;;;20.85;34.09
79415;BME280;68864;44.972;19.612;2023-04-10T10:08:48;101206.09;;;20.93;33.70
79415;BME280;68864;44.972;19.612;2023-04-10T10:11:18;101209.94;;;20.69;32.76
79415;BME280;68864;44.972;19.612;2023-04-10T10:13:49;101195.88;;;20.54;33.56
79415;BME280;68864;44.972;19.612;2023-04-10T10:16:20;101209.63;;;20.56;33.69
79415;BME280;68864;44.972;19.612;2023-04-10T10:18:52;101207.88;;;20.73;34.71
79415;BME280;68864;44.972;19.612;2023-04-10T10:21:20;101195.34;;;20.74;34.91
79415;BME280;68864;44.972;19.612;2023-04-10T10:23:48;101206.91;;;20.93;35.07
79415;BME280;68864;44.972;19.612;2023-04-10T10:26:18;101209.28;;;20.98;34.35
79415;BME280;68864;44.972;19.612;2023-04-10T10:28:48;101201.06;;;21.08;34.78
79415;BME280;68864;44.972;19.612;2023-04-10T10:31:17;101203.94;;;21.04;34.63
79415;BME280;68864;44.972;19.612;2023-04-10T10:33:44;101199.09;;;21.01;34.19
79415;BME280;68864;44.972;19.612;2023-04-10T10:36:12;101196.00;;;20.88;34.44
79415;BME280;68864;44.972;19.612;2023-04-10T10:38:49;101197.59;;;20.89;34.30
79415;BME280;68864;44.972;19.612;2023-04-10T10:41:21;101189.72;;;20.67;34.41
79415;BME280;68864;44.972;19.612;2023-04-10T10:44:05;101188.69;;;20.46;35.04
79415;BME280;68864;44.972;19.612;2023-04-10T10:46:39;101187.75;;;20.60;35.17
79415;BME280;68864;44.972;19.612;2023-04-10T10:49:08;101182.56;;;20.51;35.40
79415;BME280;68864;44.972;19.612;2023-04-10T10:51:42;101172.97;;;20.31;34.44
79415;BME280;68864;44.972;19.612;2023-04-10T10:54:26;101179.47;;;20.28;35.45
79415;BME280;68864;44.972;19.612;2023-04-10T10:56:53;101176.59;;;20.35;35.79
79415;BME280;68864;44.972;19.612;2023-04-10T11:02:15;101168.50;;;20.41;36.54
79415;BME280;68864;44.972;19.612;2023-04-10T11:04:43;101154.31;;;20.44;36.66
79415;BME280;68864;44.972;19.612;2023-04-10T11:07:10;101151.00;;;20.53;36.41
79415;BME280;68864;44.972;19.612;2023-04-10T11:09:49;101159.16;;;20.47;35.70
79415;BME280;68864;44.972;19.612;2023-04-10T11:12:20;101150.56;;;20.54;35.51
79415;BME280;68864;44.972;19.612;2023-04-10T11:14:56;101150.25;;;20.42;34.70
79415;BME280;68864;44.972;19.612;2023-04-10T11:17:55;101150.25;;;20.42;34.84
79415;BME280;68864;44.972;19.612;2023-04-10T11:20:22;101145.41;;;20.42;35.01
79415;BME280;68864;44.972;19.612;2023-04-10T11:23:08;101146.28;;;20.32;35.18
79415;BME280;68864;44.972;19.612;2023-04-10T11:25:47;101136.28;;;20.20;35.42
79415;BME280;68864;44.972;19.612;2023-04-10T11:28:33;101145.72;;;20.00;36.92
79415;BME280;68864;44.972;19.612;2023-04-10T11:31:13;101130.50;;;19.72;36.91
79415;BME280;68864;44.972;19.612;2023-04-10T11:33:44;101131.47;;;19.41;38.34
79415;BME280;68864;44.972;19.612;2023-04-10T11:36:13;101139.19;;;19.16;39.00
79415;BME280;68864;44.972;19.612;2023-04-10T11:38:52;101126.00;;;18.70;40.14
79415;BME280;68864;44.972;19.612;2023-04-10T11:41:19;101130.03;;;18.41;41.06
79415;BME280;68864;44.972;19.612;2023-04-10T11:43:50;101114.69;;;18.06;40.96
79415;BME280;68864;44.972;19.612;2023-04-10T11:46:17;101140.03;;;17.85;41.79
79415;BME280;68864;44.972;19.612;2023-04-10T11:48:45;101131.53;;;17.64;42.94
79415;BME280;68864;44.972;19.612;2023-04-10T11:51:13;101129.81;;;17.41;42.37
79415;BME280;68864;44.972;19.612;2023-04-10T11:53:40;101128.97;;;17.34;42.34
79415;BME280;68864;44.972;19.612;2023-04-10T11:56:25;101131.31;;;17.18;42.02
79415;BME280;68864;44.972;19.612;2023-04-10T11:58:54;101126.44;;;17.11;42.17
79415;BME280;68864;44.972;19.612;2023-04-10T12:01:21;101126.41;;;17.04;42.66
79415;BME280;68864;44.972;19.612;2023-04-10T12:03:49;101121.97;;;16.99;43.30
79415;BME280;68864;44.972;19.612;2023-04-10T12:06:16;101123.13;;;16.91;43.31
79415;BME280;68864;44.972;19.612;2023-04-10T12:08:45;101100.16;;;16.86;43.30
79415;BME280;68864;44.972;19.612;2023-04-10T12:11:17;101107.81;;;16.85;42.32
79415;BME280;68864;44.972;19.612;2023-04-10T12:13:44;101103.34;;;16.81;42.57
79415;BME280;68864;44.972;19.612;2023-04-10T12:16:11;101084.00;;;16.72;42.68
79415;BME280;68864;44.972;19.612;2023-04-10T12:18:38;101095.25;;;16.76;42.29
79415;BME280;68864;44.972;19.612;2023-04-10T12:21:07;101100.13;;;16.79;42.12
79415;BME280;68864;44.972;19.612;2023-04-10T12:23:36;101089.28;;;16.84;41.29
79415;BME280;68864;44.972;19.612;2023-04-10T12:26:07;101086.09;;;16.86;41.29
79415;BME280;68864;44.972;19.612;2023-04-10T12:28:35;101090.53;;;16.90;41.24
79415;BME280;68864;44.972;19.612;2023-04-10T12:31:03;101091.31;;;16.87;41.96
79415;BME280;68864;44.972;19.612;2023-04-10T12:33:30;101084.88;;;16.87;39.26
79415;BME280;68864;44.972;19.612;2023-04-10T12:35:57;101078.78;;;16.74;37.84
79415;BME280;68864;44.972;19.612;2023-04-10T12:38:39;101065.88;;;16.69;37.20
79415;BME280;68864;44.972;19.612;2023-04-10T12:41:07;101071.19;;;16.82;38.39
79415;BME280;68864;44.972;19.612;2023-04-10T12:43:35;101047.88;;;16.85;38.53
79415;BME280;68864;44.972;19.612;2023-04-10T12:46:03;101062.41;;;16.94;38.06
79415;BME280;68864;44.972;19.612;2023-04-10T12:48:30;101055.56;;;16.98;38.10
79415;BME280;68864;44.972;19.612;2023-04-10T12:50:57;101052.81;;;17.13;38.07
79415;BME280;68864;44.972;19.612;2023-04-10T12:53:24;101050.41;;;17.18;37.63